createdAt,value
2023-04-11T07:18:27.555Z,99900.64
2023-04-11T07:20:59.801Z,99899.05
2023-04-11T07:23:31.925Z,99900.66
2023-04-11T07:26:04.402Z,99888.77
2023-04-11T07:28:37.766Z,99882.42
2023-04-11T07:31:10.956Z,99877.39
2023-04-11T07:33:45.713Z,99872.23
2023-04-11T07:36:16.350Z,99869.91
2023-04-11T07:38:48.685Z,99865.89
2023-04-11T07:41:21.098Z,99862.79
2023-04-11T07:43:53.301Z,99863.73
2023-04-11T07:46:25.480Z,99859.92
2023-04-11T07:48:57.571Z,99858.34
2023-04-11T07:51:29.908Z,99852.10
2023-04-11T07:54:02.148Z,99850.70
2023-04-11T07:56:34.210Z,99841.39
2023-04-11T07:59:06.429Z,99839.75
2023-04-11T08:01:38.573Z,99832.63
2023-04-11T08:04:11.253Z,99830.22
2023-04-11T08:06:43.997Z,99826.35
2023-04-11T08:09:16.204Z,99819.70
2023-04-11T08:11:48.271Z,99822.86
2023-04-11T08:14:20.469Z,99824.55
2023-04-11T08:16:53.406Z,99820.34
2023-04-11T08:19:25.936Z,99821.98
2023-04-11T08:21:58.072Z,99816.08
2023-04-11T08:24:30.133Z,99820.33
2023-04-11T08:27:02.546Z,99809.89
2023-04-11T08:29:34.873Z,99809.81
2023-04-11T08:32:07.239Z,99804.10
2023-04-11T08:34:39.346Z,99805.20
2023-04-11T08:37:11.667Z,99807.98
2023-04-11T08:39:43.980Z,99798.39
2023-04-11T08:42:26.187Z,99795.38
2023-04-11T08:45:00.028Z,99797.64
2023-04-11T08:47:32.342Z,99792.08
2023-04-11T08:50:05.141Z,99798.20
2023-04-11T08:52:39.235Z,99790.19
2023-04-11T08:55:13.842Z,99790.73
2023-04-11T08:57:44.449Z,99788.78
2023-04-11T09:00:19.307Z,99784.66
2023-04-11T09:03:02.291Z,99785.52
2023-04-11T09:05:36.533Z,99789.27
2023-04-11T09:08:10.490Z,99782.38
2023-04-11T09:10:45.409Z,99773.70
2023-04-11T09:13:23.579Z,99773.89
2023-04-11T09:16:12.136Z,99774.16
2023-04-11T09:18:46.636Z,99769.34
2023-04-11T09:21:20.065Z,99766.28
2023-04-11T09:23:52.330Z,99764.48
2023-04-11T09:26:32.728Z,99757.66
2023-04-11T09:29:04.810Z,99752.06
2023-04-11T09:31:45.741Z,99747.17
2023-04-11T09:34:27.862Z,99737.37
2023-04-11T09:37:00.087Z,99732.70
2023-04-11T09:39:32.788Z,99732.90
2023-04-11T09:42:23.861Z,99731.39
2023-04-11T09:44:56.095Z,99733.66
2023-04-11T09:47:32.794Z,99733.38
2023-04-11T09:50:05.404Z,99720.73
2023-04-11T09:52:41.083Z,99718.11
2023-04-11T09:55:14.580Z,99716.16
2023-04-11T09:57:48.442Z,99709.72
2023-04-11T10:00:24.401Z,99701.98
2023-04-11T10:02:57.402Z,99696.47
2023-04-11T10:05:32.006Z,99698.89
2023-04-11T10:08:08.078Z,99697.85
2023-04-11T10:10:43.665Z,99690.27
2023-04-11T10:13:45.670Z,99693.56
2023-04-11T10:16:19.627Z,99688.40
2023-04-11T10:19:25.321Z,99683.25
2023-04-11T10:21:56.106Z,99682.37
2023-04-11T10:24:28.238Z,99680.97
2023-04-11T10:27:03.871Z,99675.50
2023-04-11T10:29:55.937Z,99673.21
2023-04-11T10:32:28.200Z,99673.77
2023-04-11T10:35:27.697Z,99669.59
2023-04-11T10:37:59.987Z,99661.45
2023-04-11T10:40:32.260Z,99657.77
2023-04-11T10:43:22.435Z,99657.01
2023-04-11T10:46:21.773Z,99644.93
2023-04-11T10:49:04.497Z,99643.27
2023-04-11T10:51:36.930Z,99640.80
2023-04-11T10:54:25.116Z,99634.10
2023-04-11T10:57:00.005Z,99627.63
2023-04-11T11:00:14.274Z,99620.44
2023-04-11T11:02:47.083Z,99626.33
2023-04-11T11:05:24.295Z,99624.41
2023-04-11T11:07:56.831Z,99617.38
2023-04-11T11:10:47.356Z,99609.95
2023-04-11T11:13:19.956Z,99610.85
2023-04-11T11:15:52.744Z,99603.05
2023-04-11T11:18:25.034Z,99595.56
2023-04-11T11:20:58.844Z,99601.28
2023-04-11T11:23:31.081Z,99600.48
2023-04-11T11:26:03.364Z,99591.25
2023-04-11T11:28:46.429Z,99594.14
2023-04-11T11:31:18.593Z,99587.34
2023-04-11T11:33:50.860Z,99583.17
2023-04-11T11:36:23.016Z,99581.11
2023-04-11T11:38:55.466Z,99578.54
2023-04-11T11:41:28.448Z,99575.61
2023-04-11T11:44:01.495Z,99573.54
2023-04-11T11:46:34.210Z,99579.77
2023-04-11T11:49:08.395Z,99573.53
2023-04-11T11:51:45.837Z,99571.99
2023-04-11T11:54:17.993Z,99572.38
2023-04-11T11:56:53.921Z,99579.78
2023-04-11T11:59:30.469Z,99574.77
2023-04-11T12:02:03.670Z,99571.77
2023-04-11T12:04:36.426Z,99570.11
2023-04-11T12:07:13.409Z,99565.23
2023-04-11T12:09:48.826Z,99566.00
2023-04-11T12:12:21.103Z,99565.13
2023-04-11T12:14:56.946Z,99568.56
2023-04-11T12:17:36.242Z,99563.52
2023-04-11T12:20:11.984Z,99565.36
2023-04-11T12:22:44.540Z,99562.77
2023-04-11T12:25:17.533Z,99554.80
2023-04-11T12:27:51.156Z,99550.41
2023-04-11T12:30:23.465Z,99550.77
2023-04-11T12:32:56.305Z,99554.83
2023-04-11T12:35:28.579Z,99554.20
2023-04-11T12:38:00.751Z,99546.80
2023-04-11T12:40:32.989Z,99541.81
2023-04-11T12:43:05.128Z,99539.16
2023-04-11T12:45:37.727Z,99535.94
2023-04-11T12:48:10.786Z,99536.20
2023-04-11T12:50:43.073Z,99528.28
2023-04-11T12:53:15.206Z,99527.40
2023-04-11T12:55:49.990Z,99521.45
2023-04-11T12:58:22.271Z,99518.79
2023-04-11T13:00:54.362Z,99511.15
2023-04-11T13:03:27.577Z,99504.74
2023-04-11T13:05:59.895Z,99500.98
2023-04-11T13:08:32.072Z,99493.78
2023-04-11T13:11:04.180Z,99492.65
2023-04-11T13:13:36.858Z,99485.98
2023-04-11T13:16:12.485Z,99489.15
2023-04-11T13:18:44.906Z,99487.19
2023-04-11T13:21:17.069Z,99484.38
2023-04-11T13:23:49.284Z,99487.70
2023-04-11T13:26:21.504Z,99475.65
2023-04-11T13:28:53.751Z,99479.66
2023-04-11T13:31:26.818Z,99475.02
2023-04-11T13:33:59.495Z,99472.15
2023-04-11T13:36:32.364Z,99465.05
2023-04-11T13:39:05.817Z,99468.58
2023-04-11T13:41:38.091Z,99465.69
2023-04-11T13:44:10.205Z,99458.77
2023-04-11T13:46:42.296Z,99461.25
2023-04-11T13:49:14.660Z,99451.63
2023-04-11T13:51:46.957Z,99448.69
2023-04-11T13:54:19.153Z,99450.90
2023-04-11T13:56:51.304Z,99448.88
2023-04-11T13:59:23.627Z,99445.90
2023-04-11T14:01:55.791Z,99443.61
2023-04-11T14:04:28.878Z,99443.67
2023-04-11T14:07:01.080Z,99439.63
2023-04-11T14:09:33.167Z,99440.98
2023-04-11T14:12:05.566Z,99439.66
2023-04-11T14:14:37.731Z,99440.66
2023-04-11T14:17:09.903Z,99439.39
2023-04-11T14:19:42.167Z,99438.83
2023-04-11T14:22:14.507Z,99444.33
2023-04-11T14:24:46.711Z,99436.20
2023-04-11T14:27:18.736Z,99434.06
2023-04-11T14:29:51.464Z,99434.02
2023-04-11T14:32:23.802Z,99427.73
2023-04-11T14:34:56.257Z,99417.71
2023-04-11T14:37:28.344Z,99419.60
2023-04-11T14:40:00.540Z,99419.52
2023-04-11T14:42:32.836Z,99411.52
2023-04-11T14:45:06.016Z,99405.02
2023-04-11T14:47:39.837Z,99403.54
2023-04-11T14:50:13.426Z,99397.66
2023-04-11T14:52:45.672Z,99400.69
2023-04-11T14:55:18.137Z,99392.91
2023-04-11T14:57:52.729Z,99389.98
2023-04-11T15:00:25.043Z,99389.27
2023-04-11T15:02:58.602Z,99382.74
2023-04-11T15:05:30.778Z,99380.22
2023-04-11T15:08:03.606Z,99381.73
2023-04-11T15:10:36.129Z,99378.61
2023-04-11T15:13:09.230Z,99374.97
2023-04-11T15:15:41.429Z,99374.02
2023-04-11T15:18:25.151Z,99374.58
2023-04-11T15:20:58.424Z,99381.48
2023-04-11T15:23:30.680Z,99376.44
2023-04-11T15:26:04.378Z,99377.60
2023-04-11T15:28:38.307Z,99368.40
2023-04-11T15:31:13.045Z,99366.69
2023-04-11T15:33:45.160Z,99366.48
2023-04-11T15:36:17.754Z,99366.42
2023-04-11T15:38:50.012Z,99359.69
2023-04-11T15:41:22.178Z,99361.70
2023-04-11T15:43:54.543Z,99354.55
2023-04-11T15:46:27.294Z,99358.64
2023-04-11T15:48:59.376Z,99360.89
2023-04-11T15:51:31.605Z,99360.23
2023-04-11T15:54:04.916Z,99357.80
2023-04-11T15:56:37.411Z,99353.70
2023-04-11T15:59:12.961Z,99351.23
2023-04-11T16:01:45.093Z,99351.74
2023-04-11T16:04:19.944Z,99353.23
2023-04-11T16:06:52.618Z,99350.23
2023-04-11T16:09:24.822Z,99351.27
2023-04-11T16:11:57.305Z,99345.61
2023-04-11T16:14:30.167Z,99348.05
2023-04-11T16:17:02.236Z,99351.54
2023-04-11T16:19:34.393Z,99346.52
2023-04-11T16:22:06.546Z,99350.63
2023-04-11T16:24:38.629Z,99352.03
2023-04-11T16:27:10.792Z,99352.67
2023-04-11T16:29:43.062Z,99353.73
2023-04-11T16:32:15.191Z,99352.03
2023-04-11T16:34:47.278Z,99350.10
2023-04-11T16:37:19.434Z,99354.18
2023-04-11T16:39:51.611Z,99356.73
2023-04-11T16:42:23.976Z,99351.66
2023-04-11T16:44:56.135Z,99350.15
2023-04-11T16:47:28.338Z,99347.95
2023-04-11T16:50:00.676Z,99348.60
2023-04-11T16:52:33.153Z,99350.16
2023-04-11T16:55:05.821Z,99345.51
2023-04-11T16:57:38.195Z,99345.98
2023-04-11T17:00:16.149Z,99346.27
2023-04-11T17:02:48.648Z,99349.75
2023-04-11T17:05:21.075Z,99350.44
2023-04-11T17:07:53.222Z,99350.86
2023-04-11T17:10:25.416Z,99351.71
2023-04-11T17:12:58.954Z,99354.64
2023-04-11T17:15:31.539Z,99354.41
2023-04-11T17:18:03.664Z,99353.10
2023-04-11T17:20:36.121Z,99352.74
2023-04-11T17:23:08.308Z,99354.52
2023-04-11T17:25:40.518Z,99353.88
2023-04-11T17:28:12.798Z,99359.40
2023-04-11T17:30:44.952Z,99366.27
2023-04-11T17:33:17.423Z,99366.55
2023-04-11T17:35:49.894Z,99367.49
2023-04-11T17:38:22.169Z,99371.70
2023-04-11T17:41:00.309Z,99377.34
2023-04-11T17:43:39.101Z,99389.55
2023-04-11T17:46:12.501Z,99402.06
2023-04-11T17:48:44.704Z,99408.20
2023-04-11T17:51:16.799Z,99408.27
2023-04-11T17:53:48.894Z,99410.36
2023-04-11T17:56:31.170Z,99409.95
2023-04-11T17:59:03.464Z,99411.36
2023-04-11T18:01:35.806Z,99418.08
2023-04-11T18:04:09.901Z,99421.65
2023-04-11T18:06:46.153Z,99423.98
2023-04-11T18:09:18.544Z,99431.15
2023-04-11T18:11:53.111Z,99433.75
2023-04-11T18:14:25.506Z,99440.96
2023-04-11T18:16:59.114Z,99444.11
2023-04-11T18:19:31.436Z,99448.34
2023-04-11T18:22:03.755Z,99451.70
2023-04-11T18:24:36.070Z,99456.37
2023-04-11T18:27:09.242Z,99459.30
2023-04-11T18:29:42.369Z,99460.18
2023-04-11T18:32:14.627Z,99456.61
2023-04-11T18:34:47.293Z,99459.66
2023-04-11T18:37:21.408Z,99463.82
2023-04-11T18:39:55.146Z,99464.16
2023-04-11T18:42:27.450Z,99469.10
2023-04-11T18:45:00.232Z,99468.80
2023-04-11T18:47:32.781Z,99466.91
2023-04-11T18:50:05.854Z,99469.14
2023-04-11T18:52:38.327Z,99472.73
2023-04-11T18:55:13.916Z,99478.91
2023-04-11T18:57:48.669Z,99478.67
2023-04-11T19:00:22.211Z,99477.69
2023-04-11T19:02:54.897Z,99479.39
2023-04-11T19:05:28.198Z,99480.22
2023-04-11T19:08:01.951Z,99477.73
2023-04-11T19:10:34.652Z,99477.98
2023-04-11T19:13:07.250Z,99479.27
2023-04-11T19:15:41.197Z,99475.44
2023-04-11T19:18:13.770Z,99481.67
2023-04-11T19:20:46.502Z,99482.13
2023-04-11T19:23:19.763Z,99481.92
2023-04-11T19:25:52.236Z,99478.51
2023-04-11T19:28:24.778Z,99479.23
2023-04-11T19:30:56.988Z,99478.07
2023-04-11T19:33:29.425Z,99480.48
2023-04-11T19:36:01.718Z,99479.27
2023-04-11T19:38:34.783Z,99481.39
2023-04-11T19:41:15.508Z,99480.23
2023-04-11T19:43:48.816Z,99480.32
2023-04-11T19:46:21.251Z,99481.60
2023-04-11T19:48:55.060Z,99483.52
2023-04-11T19:51:27.569Z,99479.54
2023-04-11T19:54:00.039Z,99477.36
2023-04-11T19:56:32.404Z,99473.13
2023-04-11T19:59:04.706Z,99467.02
2023-04-11T20:01:36.994Z,99464.11
2023-04-11T20:04:09.828Z,99462.36
2023-04-11T20:06:44.149Z,99465.89
2023-04-11T20:09:16.433Z,99473.59
2023-04-11T20:11:50.840Z,99470.92
2023-04-11T20:14:23.300Z,99472.48
2023-04-11T20:16:55.605Z,99470.02
2023-04-11T20:19:29.877Z,99471.46
2023-04-11T20:22:03.066Z,99472.29
2023-04-11T20:24:35.429Z,99478.07
2023-04-11T20:27:07.650Z,99479.44
2023-04-11T20:29:39.717Z,99472.83
2023-04-11T20:32:12.068Z,99473.95
2023-04-11T20:34:44.180Z,99467.98
2023-04-11T20:37:18.360Z,99462.36
2023-04-11T20:39:50.697Z,99465.86
2023-04-11T20:42:22.960Z,99466.04
2023-04-11T20:44:57.942Z,99466.02
2023-04-11T20:47:30.200Z,99463.61
2023-04-11T20:50:03.973Z,99465.06
2023-04-11T20:52:36.951Z,99466.34
2023-04-11T20:55:13.728Z,99471.20
2023-04-11T20:57:46.213Z,99475.44
2023-04-11T21:00:20.246Z,99473.77
2023-04-11T21:02:53.207Z,99479.86
2023-04-11T21:05:25.903Z,99484.05
2023-04-11T21:07:58.480Z,99479.23
2023-04-11T21:10:30.605Z,99482.62
2023-04-11T21:13:02.759Z,99480.60
2023-04-11T21:15:36.086Z,99483.54
2023-04-11T21:18:08.382Z,99486.61
2023-04-11T21:20:41.743Z,99486.01
2023-04-11T21:23:13.886Z,99486.58
2023-04-11T21:25:45.989Z,99488.37
2023-04-11T21:28:18.238Z,99496.80
2023-04-11T21:30:50.533Z,99504.60
2023-04-11T21:33:22.747Z,99514.06
2023-04-11T21:35:56.915Z,99512.29
2023-04-11T21:38:29.169Z,99507.92
2023-04-11T21:41:01.319Z,99510.95
2023-04-11T21:43:33.487Z,99508.63
2023-04-11T21:46:05.985Z,99514.98
2023-04-11T21:48:38.148Z,99521.36
2023-04-11T21:51:11.121Z,99527.05
2023-04-11T21:53:43.229Z,99529.08
2023-04-11T21:56:15.559Z,99532.30
2023-04-11T21:58:47.777Z,99526.77
2023-04-11T22:01:21.084Z,99520.64
2023-04-11T22:03:53.379Z,99519.69
2023-04-11T22:06:26.687Z,99514.98
2023-04-11T22:09:01.489Z,99512.34
2023-04-11T22:11:32.119Z,99497.33
2023-04-11T22:14:04.312Z,99488.16
2023-04-11T22:16:36.531Z,99484.07
2023-04-11T22:19:09.159Z,99487.35
2023-04-11T22:21:41.406Z,99493.33
2023-04-11T22:24:13.643Z,99501.85
2023-04-11T22:26:49.243Z,99503.30
2023-04-11T22:29:22.290Z,99501.37
2023-04-11T22:31:54.588Z,99498.52
2023-04-11T22:34:27.047Z,99492.82
2023-04-11T22:36:59.128Z,99497.02
2023-04-11T22:39:31.721Z,99495.58
2023-04-11T22:42:04.954Z,99494.02
2023-04-11T22:44:37.126Z,99492.09
2023-04-11T22:47:13.616Z,99492.66
2023-04-11T22:49:45.973Z,99488.08
2023-04-11T22:52:24.416Z,99485.85
2023-04-11T22:54:57.764Z,99485.89
2023-04-11T22:57:29.857Z,99486.92
2023-04-11T23:00:03.097Z,99488.50
2023-04-11T23:02:36.155Z,99486.14
2023-04-11T23:05:11.492Z,99489.79
2023-04-11T23:07:44.099Z,99492.15
2023-04-11T23:10:17.279Z,99490.86
2023-04-11T23:12:49.658Z,99493.02
2023-04-11T23:15:22.795Z,99492.66
2023-04-11T23:17:55.040Z,99491.92
2023-04-11T23:20:27.558Z,99491.70
2023-04-11T23:22:59.848Z,99486.75
2023-04-11T23:25:32.080Z,99478.88
2023-04-11T23:28:04.256Z,99478.34
2023-04-11T23:30:37.350Z,99471.83
2023-04-11T23:33:09.610Z,99471.67
2023-04-11T23:35:42.113Z,99476.17
2023-04-11T23:38:14.250Z,99474.35
2023-04-11T23:40:46.500Z,99472.54
2023-04-11T23:43:18.638Z,99479.53
2023-04-11T23:45:50.950Z,99478.02
2023-04-11T23:48:23.688Z,99474.09
2023-04-11T23:50:56.367Z,99474.89
2023-04-11T23:53:28.511Z,99478.24
2023-04-11T23:56:03.397Z,99468.17
2023-04-11T23:58:35.074Z,99465.08
